Time;durP1;ratioP1;P1;durP2;ratioP2;P2;SDS_P1;SDS_P2;PMS_P1;PMS_P2;Temp;Humidity;BMP_temperature;BMP_pressure;BME280_temperature;BME280_humidity;BME280_pressure;Samples;Min_cycle;Max_cycle;Signal;HPM_P1;HPM_P2
2022/08/20 00:00:48;;;;;;;28.80;13.95;;;23.40;99.90;;;;;;5075408;28;20102;-81
2022/08/20 00:03:26;;;;;;;35.28;14.60;;;23.30;99.90;;;;;;5076155;28;20060;-79
2022/08/20 00:06:03;;;;;;;28.00;13.95;;;23.30;99.90;;;;;;5057872;28;20418;-81
2022/08/20 00:08:29;;;;;;;30.02;13.80;;;23.20;99.90;;;;;;5075733;28;20029;-82
2022/08/20 00:10:56;;;;;;;35.17;14.45;;;23.30;99.90;;;;;;5075405;28;20056;-80
2022/08/20 00:13:34;;;;;;;35.17;15.35;;;23.30;99.90;;;;;;5075655;28;20020;-80
2022/08/20 00:16:01;;;;;;;35.58;14.02;;;23.20;99.90;;;;;;5057337;28;20086;-80
2022/08/20 00:18:27;;;;;;;25.60;14.43;;;23.20;99.90;;;;;;5075395;28;20025;-80
2022/08/20 00:20:54;;;;;;;30.10;13.48;;;23.20;99.90;;;;;;5075225;28;20107;-80
2022/08/20 00:23:21;;;;;;;30.10;14.73;;;23.20;99.90;;;;;;5075248;28;20028;-80
2022/08/20 00:25:47;;;;;;;29.60;17.52;;;23.00;99.90;;;;;;5075247;28;20031;-82
2022/08/20 00:28:14;;;;;;;26.25;13.38;;;23.00;99.90;;;;;;5075379;28;20521;-81
2022/08/20 00:30:42;;;;;;;35.63;14.77;;;23.00;99.90;;;;;;5057356;28;20021;-81
2022/08/20 00:33:15;;;;;;;29.35;14.07;;;23.00;99.90;;;;;;5057388;28;20353;-79
2022/08/20 00:35:45;;;;;;;32.22;16.77;;;23.00;99.90;;;;;;5074941;28;20044;-80
2022/08/20 00:38:11;;;;;;;42.53;20.65;;;23.00;99.90;;;;;;5057240;28;20024;-81
2022/08/20 00:40:47;;;;;;;31.35;18.80;;;23.00;99.90;;;;;;5074998;28;20129;-80
2022/08/20 00:43:33;;;;;;;35.50;19.75;;;23.00;99.90;;;;;;5074875;28;20017;-82
2022/08/20 00:46:02;;;;;;;29.85;13.85;;;23.00;99.90;;;;;;5055257;28;20029;-80
2022/08/20 00:48:31;;;;;;;28.33;13.73;;;23.10;99.90;;;;;;5054675;28;20041;-80
2022/08/20 00:51:25;;;;;;;24.48;13.55;;;23.10;99.90;;;;;;5054463;28;20029;-81
2022/08/20 00:53:57;;;;;;;25.55;14.68;;;23.10;99.90;;;;;;5054565;28;20381;-81
2022/08/20 00:56:23;;;;;;;39.03;20.67;;;23.10;99.90;;;;;;5054549;28;20013;-81
2022/08/20 00:58:50;;;;;;;38.45;22.23;;;23.00;99.90;;;;;;5054673;28;20384;-81
2022/08/20 01:01:18;;;;;;;33.63;20.48;;;23.00;99.90;;;;;;5054896;28;20456;-81
2022/08/20 01:03:44;;;;;;;49.53;17.33;;;23.00;99.90;;;;;;5054197;28;20407;-82
2022/08/20 01:06:12;;;;;;;41.00;20.90;;;22.80;99.90;;;;;;5036674;28;20093;-81
2022/08/20 01:08:41;;;;;;;35.67;20.98;;;22.70;99.90;;;;;;5054471;28;20032;-82
2022/08/20 01:11:17;;;;;;;45.80;20.40;;;22.70;99.90;;;;;;5054317;28;20383;-81
2022/08/20 01:13:45;;;;;;;35.72;19.52;;;22.70;99.90;;;;;;5054599;28;20033;-82
2022/08/20 01:16:20;;;;;;;35.40;19.83;;;22.70;99.90;;;;;;5036583;28;20025;-84
2022/08/20 01:18:48;;;;;;;38.25;20.55;;;22.80;99.90;;;;;;5065824;28;20039;-81
2022/08/20 01:21:18;;;;;;;31.27;20.27;;;22.70;99.90;;;;;;5074222;28;20471;-81
2022/08/20 01:23:54;;;;;;;36.35;19.02;;;22.70;99.90;;;;;;5074256;28;20386;-83
2022/08/20 01:26:34;;;;;;;33.95;16.35;;;22.70;99.90;;;;;;5074127;28;20030;-82
2022/08/20 01:29:11;;;;;;;33.17;19.27;;;22.60;99.90;;;;;;5074527;28;20036;-82
2022/08/20 01:31:38;;;;;;;31.52;17.88;;;22.60;99.90;;;;;;5073872;28;20024;-82
2022/08/20 01:34:09;;;;;;;34.33;17.63;;;22.50;99.90;;;;;;5056206;28;20024;-82
2022/08/20 01:36:39;;;;;;;31.17;17.52;;;22.50;99.90;;;;;;5073699;28;20056;-81
2022/08/20 01:39:08;;;;;;;35.72;16.20;;;22.50;99.90;;;;;;5073927;28;20033;-80
2022/08/20 01:41:56;;;;;;;30.38;17.92;;;22.40;99.90;;;;;;5055985;28;20425;-81
2022/08/20 01:44:23;;;;;;;36.75;14.95;;;22.30;99.90;;;;;;5055630;28;20115;-82
2022/08/20 01:46:52;;;;;;;33.97;14.35;;;22.30;99.90;;;;;;5055786;28;20025;-81
2022/08/20 01:49:20;;;;;;;29.33;13.70;;;22.20;99.90;;;;;;5055124;28;20039;-86
2022/08/20 01:51:47;;;;;;;31.35;14.25;;;22.20;99.90;;;;;;5052860;28;20037;-85
2022/08/20 01:54:14;;;;;;;34.70;18.60;;;22.10;99.90;;;;;;5052108;28;20029;-82
2022/08/20 01:56:57;;;;;;;28.48;13.43;;;22.20;99.90;;;;;;5051614;28;20439;-82
2022/08/20 01:59:23;;;;;;;31.33;11.63;;;22.10;99.90;;;;;;5069123;28;20127;-83
2022/08/20 02:01:49;;;;;;;32.10;13.23;;;22.10;99.90;;;;;;5053780;28;20043;-81
2022/08/20 02:04:17;;;;;;;34.88;13.45;;;22.10;99.90;;;;;;5054658;28;20045;-82
2022/08/20 02:06:47;;;;;;;25.08;12.43;;;22.00;99.90;;;;;;5070529;28;20035;-83
2022/08/20 02:09:13;;;;;;;32.28;15.10;;;22.00;99.90;;;;;;5069922;28;20028;-80
2022/08/20 02:11:39;;;;;;;32.50;11.50;;;22.00;99.90;;;;;;5069028;28;20025;-80
2022/08/20 02:14:07;;;;;;;22.13;10.93;;;22.00;99.90;;;;;;5068649;28;20044;-82
2022/08/20 02:16:37;;;;;;;24.35;11.45;;;22.00;99.90;;;;;;5068700;28;20025;-82
2022/08/20 02:19:11;;;;;;;36.35;12.18;;;22.10;99.90;;;;;;5053757;28;20086;-82
2022/08/20 02:21:42;;;;;;;25.83;11.45;;;22.00;99.90;;;;;;5076994;28;20371;-83
2022/08/20 02:24:08;;;;;;;25.15;11.68;;;22.00;99.90;;;;;;5077697;28;20028;-81
2022/08/20 02:26:36;;;;;;;31.45;11.55;;;22.00;99.90;;;;;;5059359;28;20060;-82
2022/08/20 02:29:05;;;;;;;24.30;12.00;;;22.00;99.90;;;;;;5077711;28;20032;-81
2022/08/20 02:31:31;;;;;;;36.00;12.10;;;22.10;99.90;;;;;;5077234;28;20104;-82
2022/08/20 02:33:57;;;;;;;30.70;12.00;;;22.10;99.90;;;;;;5073561;28;20490;-80
2022/08/20 02:36:23;;;;;;;39.03;12.23;;;22.10;99.90;;;;;;5051088;28;20049;-82
2022/08/20 02:38:49;;;;;;;24.60;10.70;;;22.10;99.90;;;;;;5050714;28;20029;-82
2022/08/20 02:41:15;;;;;;;40.92;12.32;;;22.10;99.90;;;;;;5052303;28;20037;-81
2022/08/20 02:43:40;;;;;;;23.55;14.90;;;22.00;99.90;;;;;;5052355;28;20021;-81
2022/08/20 02:46:06;;;;;;;34.97;13.63;;;21.90;99.90;;;;;;5052059;28;20029;-83
2022/08/20 02:48:33;;;;;;;24.45;12.02;;;22.00;99.90;;;;;;5053042;28;20069;-82
2022/08/20 02:51:03;;;;;;;27.85;12.48;;;22.00;99.90;;;;;;5054153;28;20036;-82
2022/08/20 02:53:33;;;;;;;27.13;12.77;;;21.90;99.90;;;;;;5052277;28;20433;-82
2022/08/20 02:55:59;;;;;;;37.15;14.20;;;21.80;99.90;;;;;;5053337;28;20029;-83
2022/08/20 02:58:25;;;;;;;24.48;12.98;;;21.80;99.90;;;;;;5056988;28;20145;-81
2022/08/20 03:00:51;;;;;;;32.70;12.75;;;21.80;99.90;;;;;;5055670;28;20029;-82
2022/08/20 03:03:21;;;;;;;27.80;11.85;;;21.80;99.90;;;;;;5056534;28;20021;-83
2022/08/20 03:05:48;;;;;;;33.42;15.35;;;21.80;99.90;;;;;;5056590;28;20132;-81
2022/08/20 03:08:15;;;;;;;31.50;12.20;;;21.70;99.90;;;;;;5056761;28;20456;-83
2022/08/20 03:10:43;;;;;;;27.38;13.15;;;21.70;99.90;;;;;;5052427;28;20021;-82
2022/08/20 03:13:12;;;;;;;30.95;12.00;;;21.70;99.90;;;;;;5052320;28;20036;-83
2022/08/20 03:15:49;;;;;;;30.75;13.48;;;21.70;99.90;;;;;;5050854;28;20038;-81
2022/08/20 03:18:16;;;;;;;35.83;12.65;;;21.60;99.90;;;;;;5052975;28;20037;-80
2022/08/20 03:20:42;;;;;;;25.95;11.90;;;21.60;99.90;;;;;;5053584;28;20040;-83
2022/08/20 03:23:08;;;;;;;30.10;11.57;;;21.50;99.90;;;;;;5051559;28;20036;-85
2022/08/20 03:25:34;;;;;;;33.47;12.93;;;21.50;99.90;;;;;;5051444;28;20116;-84
2022/08/20 03:28:00;;;;;;;33.17;15.30;;;21.40;99.90;;;;;;5051611;28;20104;-84
2022/08/20 03:30:28;;;;;;;30.98;13.35;;;21.40;99.90;;;;;;5051563;28;20063;-82
2022/08/20 03:32:54;;;;;;;29.45;12.85;;;21.40;99.90;;;;;;5050693;28;20055;-81
2022/08/20 03:35:22;;;;;;;34.72;16.10;;;21.30;99.90;;;;;;5056459;28;20059;-82
2022/08/20 03:37:48;;;;;;;30.75;12.90;;;21.30;99.90;;;;;;5070632;28;20025;-83
2022/08/20 03:40:19;;;;;;;34.85;12.98;;;21.30;99.90;;;;;;5071113;28;20074;-82
2022/08/20 03:42:45;;;;;;;26.60;12.70;;;21.30;99.90;;;;;;5071686;28;20025;-81
2022/08/20 03:45:12;;;;;;;25.63;12.68;;;21.30;99.90;;;;;;5071944;28;20040;-82
2022/08/20 03:47:40;;;;;;;26.73;12.35;;;21.40;99.90;;;;;;5075698;28;20028;-83
2022/08/20 03:50:08;;;;;;;24.80;13.05;;;21.50;99.90;;;;;;5057471;28;20039;-82
2022/08/20 03:52:34;;;;;;;27.27;11.82;;;21.50;99.90;;;;;;5057029;28;20035;-84
2022/08/20 03:55:00;;;;;;;33.45;12.48;;;21.50;99.90;;;;;;5057351;28;20082;-82
2022/08/20 03:57:27;;;;;;;35.90;12.07;;;21.50;99.90;;;;;;5075493;28;20029;-82
2022/08/20 03:59:53;;;;;;;26.15;12.55;;;21.60;99.90;;;;;;5056562;28;20086;-82
2022/08/20 04:02:19;;;;;;;33.80;13.90;;;21.50;99.90;;;;;;5057067;28;20078;-81
2022/08/20 04:04:45;;;;;;;30.15;14.20;;;21.40;99.90;;;;;;5057017;28;20037;-82
2022/08/20 04:07:14;;;;;;;40.15;14.70;;;21.30;99.90;;;;;;5075204;28;20029;-84
2022/08/20 04:09:40;;;;;;;31.95;14.02;;;21.30;99.90;;;;;;5057088;28;20032;-83
2022/08/20 04:12:07;;;;;;;30.25;13.85;;;21.20;99.90;;;;;;5057131;28;20479;-83
2022/08/20 04:14:35;;;;;;;35.05;13.80;;;21.30;99.90;;;;;;5074787;28;20074;-84
2022/08/20 04:17:08;;;;;;;24.92;12.50;;;21.30;99.90;;;;;;5074773;28;20029;-83
2022/08/20 04:19:35;;;;;;;29.30;14.55;;;21.30;99.90;;;;;;5074375;28;20062;-84
2022/08/20 04:22:01;;;;;;;43.45;13.55;;;21.40;99.90;;;;;;5056916;28;20033;-83
2022/08/20 04:24:27;;;;;;;29.45;12.55;;;21.50;99.90;;;;;;5056190;28;20025;-84
2022/08/20 04:26:53;;;;;;;27.80;12.48;;;21.40;99.90;;;;;;5074689;28;20103;-85
2022/08/20 04:29:20;;;;;;;29.92;12.73;;;21.50;99.90;;;;;;5074491;28;20111;-84
2022/08/20 04:31:47;;;;;;;25.67;12.75;;;21.60;99.90;;;;;;5056360;28;20064;-81
2022/08/20 04:34:13;;;;;;;39.45;14.30;;;21.60;99.90;;;;;;5074416;28;20025;-81
2022/08/20 04:36:39;;;;;;;26.83;13.10;;;21.60;99.90;;;;;;5074443;28;20472;-83
2022/08/20 04:39:05;;;;;;;32.92;12.80;;;21.60;99.90;;;;;;5056367;28;20040;-82
2022/08/20 04:41:31;;;;;;;28.08;14.18;;;21.60;99.90;;;;;;5067477;28;20024;-84
2022/08/20 04:43:57;;;;;;;26.83;13.45;;;21.60;99.90;;;;;;5074340;28;20025;-84
2022/08/20 04:46:27;;;;;;;34.40;13.98;;;21.70;99.90;;;;;;5074115;28;20361;-82
2022/08/20 04:48:54;;;;;;;32.33;13.30;;;21.70;99.90;;;;;;5056330;28;20383;-83
2022/08/20 04:51:20;;;;;;;34.70;13.65;;;21.70;99.90;;;;;;5056412;28;20037;-83
2022/08/20 04:53:47;;;;;;;28.73;13.45;;;21.70;99.90;;;;;;5074110;28;20020;-82
2022/08/20 04:56:13;;;;;;;34.75;12.57;;;21.70;99.90;;;;;;5073938;28;20036;-83
2022/08/20 04:58:40;;;;;;;26.77;12.50;;;21.70;99.90;;;;;;5056106;28;20029;-83
2022/08/20 05:01:08;;;;;;;33.25;13.38;;;21.70;99.90;;;;;;5056050;28;20037;-81
2022/08/20 05:03:39;;;;;;;26.67;15.55;;;21.70;99.90;;;;;;5055271;28;20406;-81
2022/08/20 05:06:08;;;;;;;35.33;15.18;;;21.70;99.90;;;;;;5055666;28;20032;-81
2022/08/20 05:08:35;;;;;;;34.83;17.60;;;21.70;99.90;;;;;;5054930;28;20025;-83
2022/08/20 05:11:01;;;;;;;40.80;20.65;;;21.70;99.90;;;;;;5056192;28;20028;-82
2022/08/20 05:13:28;;;;;;;50.88;23.80;;;21.70;99.90;;;;;;5055747;28;20073;-83
2022/08/20 05:15:55;;;;;;;33.78;14.35;;;21.80;99.90;;;;;;5055853;28;20387;-83
2022/08/20 05:18:23;;;;;;;35.33;13.77;;;21.80;99.90;;;;;;5049325;28;20465;-82
2022/08/20 05:20:49;;;;;;;24.75;12.80;;;21.70;99.90;;;;;;5055593;28;20036;-81
2022/08/20 05:23:17;;;;;;;33.13;13.75;;;21.70;99.90;;;;;;5073062;28;20029;-81
2022/08/20 05:25:46;;;;;;;34.15;13.43;;;21.70;99.90;;;;;;5073527;28;20036;-82
2022/08/20 05:28:31;;;;;;;37.90;14.63;;;21.60;99.90;;;;;;5055382;28;20086;-82
2022/08/20 05:31:06;;;;;;;34.55;14.52;;;21.60;99.90;;;;;;5073304;28;20016;-82
2022/08/20 05:33:32;;;;;;;30.00;13.73;;;21.60;99.90;;;;;;5054750;28;20027;-82
2022/08/20 05:36:06;;;;;;;28.58;13.52;;;21.60;99.90;;;;;;5055271;28;20052;-82
2022/08/20 05:38:38;;;;;;;35.78;13.70;;;21.60;99.90;;;;;;5055041;28;20044;-82
2022/08/20 05:41:07;;;;;;;31.25;12.63;;;21.70;99.90;;;;;;5055313;28;20410;-82
2022/08/20 05:43:32;;;;;;;34.22;13.38;;;21.60;99.90;;;;;;5055332;28;20029;-83
2022/08/20 05:46:04;;;;;;;31.90;12.32;;;21.60;99.90;;;;;;5055108;28;20071;-82
2022/08/20 05:48:46;;;;;;;26.98;11.20;;;21.60;99.90;;;;;;5055238;28;20383;-82
2022/08/20 05:51:12;;;;;;;33.80;12.07;;;21.60;99.90;;;;;;5055260;28;20028;-83
2022/08/20 05:53:38;;;;;;;33.80;11.70;;;21.60;99.90;;;;;;5054423;28;20490;-83
2022/08/20 05:56:10;;;;;;;35.55;12.55;;;21.50;99.90;;;;;;5055135;28;20032;-82
2022/08/20 06:01:42;;;;;;;36.47;13.73;;;21.40;99.90;;;;;;5072554;28;20397;-84
2022/08/20 06:04:25;;;;;;;36.25;13.43;;;21.30;99.90;;;;;;5056029;28;20031;-84
2022/08/20 06:07:11;;;;;;;42.17;14.38;;;21.30;99.90;;;;;;5073387;28;20066;-83
2022/08/20 06:09:37;;;;;;;47.72;17.02;;;21.30;99.90;;;;;;5054903;28;20036;-80
2022/08/20 06:12:05;;;;;;;43.13;18.98;;;21.20;99.90;;;;;;5055170;28;20020;-79
2022/08/20 06:14:31;;;;;;;40.03;16.38;;;21.10;99.90;;;;;;5073674;28;20035;-79
2022/08/20 06:17:09;;;;;;;35.78;14.55;;;21.00;99.90;;;;;;5073585;28;20482;-79
2022/08/20 06:19:36;;;;;;;41.63;18.75;;;20.90;99.90;;;;;;5055352;28;20372;-81
2022/08/20 06:22:04;;;;;;;38.38;19.50;;;20.80;99.90;;;;;;5081580;28;20036;-83
2022/08/20 06:24:30;;;;;;;35.72;17.23;;;20.80;99.90;;;;;;5093755;28;20020;-81
2022/08/20 06:27:00;;;;;;;36.55;18.63;;;20.80;99.90;;;;;;5093242;28;20108;-81
2022/08/20 06:29:27;;;;;;;39.08;17.40;;;20.80;99.90;;;;;;5075623;28;20043;-80
2022/08/20 06:31:53;;;;;;;37.88;16.42;;;20.90;99.90;;;;;;5075978;28;20364;-80
2022/08/20 06:34:19;;;;;;;33.60;16.45;;;20.90;99.90;;;;;;5093809;28;20024;-81
2022/08/20 06:36:46;;;;;;;38.67;16.33;;;20.90;99.90;;;;;;5075275;28;20095;-80
2022/08/20 06:39:13;;;;;;;33.75;15.95;;;21.00;99.90;;;;;;5075277;28;20024;-81
2022/08/20 06:41:39;;;;;;;36.08;17.02;;;20.90;99.90;;;;;;5093335;28;20475;-81
2022/08/20 06:44:08;;;;;;;41.53;16.95;;;21.00;99.90;;;;;;5093788;28;20036;-82
2022/08/20 06:46:35;;;;;;;34.95;18.02;;;21.00;99.90;;;;;;5078179;28;20028;-81
2022/08/20 06:49:03;;;;;;;32.65;15.68;;;21.00;99.90;;;;;;5080902;28;20035;-82
2022/08/20 06:51:29;;;;;;;33.05;16.35;;;21.10;99.90;;;;;;5070790;28;20056;-80
2022/08/20 06:53:55;;;;;;;38.20;18.05;;;21.00;99.90;;;;;;5072559;28;20033;-83
2022/08/20 06:56:22;;;;;;;43.83;17.63;;;21.10;99.90;;;;;;5053874;28;20035;-80
2022/08/20 06:58:48;;;;;;;34.50;17.02;;;21.10;99.90;;;;;;5073196;28;20111;-80
2022/08/20 07:01:14;;;;;;;30.60;15.40;;;21.20;99.90;;;;;;5072639;28;20024;-80
2022/08/20 07:03:41;;;;;;;28.25;16.27;;;21.20;99.90;;;;;;5055239;28;20112;-82
2022/08/20 07:06:08;;;;;;;38.75;17.75;;;21.20;99.90;;;;;;5075867;28;20035;-80
2022/08/20 07:08:34;;;;;;;35.22;18.05;;;21.30;99.90;;;;;;5076359;28;20033;-79
2022/08/20 07:11:00;;;;;;;42.40;19.75;;;21.20;99.90;;;;;;5058206;28;20028;-79
2022/08/20 07:13:27;;;;;;;39.42;17.77;;;21.00;99.90;;;;;;5076517;28;20032;-83
2022/08/20 07:15:53;;;;;;;39.17;16.92;;;21.00;99.90;;;;;;5076251;28;20364;-80
2022/08/20 07:18:21;;;;;;;33.88;17.48;;;21.10;99.90;;;;;;5076216;28;20029;-79
2022/08/20 07:20:47;;;;;;;47.78;18.95;;;21.10;99.90;;;;;;5075691;28;20033;-81
2022/08/20 07:23:13;;;;;;;37.85;18.55;;;21.10;99.90;;;;;;5076024;28;20032;-81
2022/08/20 07:25:41;;;;;;;37.47;18.48;;;21.10;99.90;;;;;;5076161;28;20033;-80
2022/08/20 07:28:13;;;;;;;41.00;18.23;;;21.20;99.90;;;;;;5075706;28;20021;-80
2022/08/20 07:33:29;;;;;;;36.83;17.52;;;21.20;99.90;;;;;;5076417;28;20035;-82
2022/08/20 07:35:59;;;;;;;35.20;19.33;;;21.20;99.90;;;;;;5076074;28;20052;-79
2022/08/20 07:38:28;;;;;;;45.95;19.45;;;21.20;99.90;;;;;;5076447;28;20470;-78
2022/08/20 07:40:57;;;;;;;39.53;19.38;;;21.10;99.90;;;;;;5076539;28;20029;-80
2022/08/20 07:43:24;;;;;;;44.92;17.67;;;21.30;99.90;;;;;;5075978;28;20021;-80
2022/08/20 07:45:54;;;;;;;32.47;16.08;;;21.20;99.90;;;;;;5058180;28;20485;-80
2022/08/20 07:48:20;;;;;;;33.35;19.55;;;21.30;99.90;;;;;;5076292;28;20468;-79
2022/08/20 07:50:48;;;;;;;35.22;18.65;;;21.20;99.90;;;;;;5057976;28;20024;-80
2022/08/20 07:53:15;;;;;;;30.42;16.75;;;21.10;99.90;;;;;;5057555;28;20395;-79
2022/08/20 07:55:42;;;;;;;35.95;18.48;;;21.10;99.90;;;;;;5076031;28;20056;-81
2022/08/20 07:58:10;;;;;;;32.15;17.90;;;21.00;99.90;;;;;;5057662;28;20486;-80
2022/08/20 08:00:37;;;;;;;39.15;18.25;;;21.00;99.90;;;;;;5075608;28;20520;-79
2022/08/20 08:03:03;;;;;;;41.55;19.50;;;21.20;99.90;;;;;;5076090;28;20117;-79
2022/08/20 08:05:34;;;;;;;31.20;19.02;;;21.20;99.90;;;;;;5075435;28;20042;-82
2022/08/20 08:08:00;;;;;;;39.17;18.83;;;21.20;99.90;;;;;;5075583;28;20154;-79
2022/08/20 08:10:27;;;;;;;47.22;18.95;;;21.20;99.90;;;;;;5057584;28;20029;-80
2022/08/20 08:12:57;;;;;;;40.20;20.35;;;21.20;99.90;;;;;;5075186;28;20150;-83
2022/08/20 08:15:31;;;;;;;41.13;20.83;;;21.10;99.90;;;;;;5072569;28;20032;-80
2022/08/20 08:18:07;;;;;;;43.20;20.80;;;21.20;99.90;;;;;;5074116;28;20047;-79
2022/08/20 08:20:40;;;;;;;39.95;21.23;;;21.20;99.90;;;;;;5074640;28;20035;-79
2022/08/20 08:23:10;;;;;;;34.65;18.90;;;21.30;99.90;;;;;;5074910;28;20091;-81
2022/08/20 08:25:41;;;;;;;39.97;20.38;;;21.30;99.90;;;;;;5056761;28;20020;-83
2022/08/20 08:28:10;;;;;;;35.83;20.77;;;21.40;99.90;;;;;;5074796;28;20361;-80
2022/08/20 08:30:39;;;;;;;38.38;19.85;;;21.50;99.90;;;;;;5075389;28;20028;-81
2022/08/20 08:35:50;;;;;;;40.83;21.08;;;21.60;99.90;;;;;;5075083;28;20517;-79
2022/08/20 08:38:16;;;;;;;38.92;19.02;;;21.70;99.90;;;;;;5057194;28;20020;-80
2022/08/20 08:40:43;;;;;;;38.00;19.85;;;21.70;99.90;;;;;;5057083;28;20593;-80
2022/08/20 08:43:13;;;;;;;33.78;19.88;;;21.80;99.90;;;;;;5075313;28;20108;-81
2022/08/20 08:45:44;;;;;;;35.35;18.75;;;21.80;99.90;;;;;;5074931;28;20029;-79
2022/08/20 08:48:12;;;;;;;;;;;21.90;99.90;;;;;;5075530;28;20052;-79
2022/08/20 08:50:41;;;;;;;34.63;17.48;;;22.00;99.90;;;;;;5056925;28;19905;-80
2022/08/20 08:53:08;;;;;;;39.47;18.65;;;;;;;;;;5075049;28;20112;-80
2022/08/20 08:55:34;;;;;;;28.02;17.30;;;;;;;;;;5057010;28;20467;-79
2022/08/20 08:58:01;;;;;;;39.10;17.83;;;;;;;;;;5074765;28;20035;-80
2022/08/20 09:00:27;;;;;;;35.42;19.42;;;;;;;;;;5056631;28;20021;-78
2022/08/20 09:02:56;;;;;;;32.13;18.00;;;;;;;;;;5074757;28;20024;-81
2022/08/20 09:05:24;;;;;;;28.90;17.27;;;;;;;;;;5074551;28;20028;-80
2022/08/20 09:07:52;;;;;;;31.55;16.88;;;;;;;;;;5074424;28;20033;-78
2022/08/20 09:10:19;;;;;;;30.58;17.25;;;;;;;;;;5056611;28;20103;-80
2022/08/20 09:12:45;;;;;;;30.85;17.00;;;;;;;;;;5074233;28;20398;-78
2022/08/20 09:15:12;;;;;;;36.60;18.17;;;;;;;;;;5074559;28;20020;-78
2022/08/20 09:17:38;;;;;;;33.95;15.98;;;;;;;;;;5056487;28;20043;-79
2022/08/20 09:20:04;;;;;;;33.08;16.15;;;;;;;;;;5056538;28;20365;-79
2022/08/20 09:22:32;;;;;;;35.85;17.95;;;;;;;;;;5074437;28;20060;-82
2022/08/20 09:24:59;;;;;;;36.65;17.45;;;;;;;;;;5074212;28;20103;-80
2022/08/20 09:27:25;;;;;;;27.80;17.48;;;;;;;;;;5074262;28;20455;-81
2022/08/20 09:29:52;;;;;;;28.65;17.85;;;;;;;;;;5074242;28;20024;-79
2022/08/20 09:32:22;;;;;;;30.52;16.20;;;;;;;;;;5074103;28;20344;-80
2022/08/20 09:34:55;;;;;;;31.92;17.33;;;;;;;;;;5055836;28;20040;-79
2022/08/20 09:37:21;;;;;;;35.05;16.98;;;;;;;;;;5074267;28;20479;-80
2022/08/20 09:39:47;;;;;;;37.20;17.67;;;;;;;;;;5073917;28;20035;-79
2022/08/20 09:42:22;;;;;;;32.40;17.63;;;;;;;;;;5073550;28;20349;-78
2022/08/20 09:44:48;;;;;;;29.52;17.63;;;;;;;;;;5073648;28;20044;-80
2022/08/20 09:47:16;;;;;;;24.83;14.52;;;;;;;;;;5073732;28;20383;-79
2022/08/20 09:49:42;;;;;;;23.73;16.65;;;;;;;;;;5055867;28;20077;-78
2022/08/20 09:52:10;;;;;;;24.38;14.90;;;;;;;;;;5073831;28;20054;-79
2022/08/20 09:54:38;;;;;;;28.50;15.45;;;;;;;;;;5073566;28;20031;-78
2022/08/20 09:57:06;;;;;;;29.70;16.80;;;;;;;;;;5073791;28;20104;-79
2022/08/20 09:59:32;;;;;;;31.33;15.50;;;;;;;;;;5055658;28;20024;-80
2022/08/20 10:01:58;;;;;;;27.10;15.02;;;;;;;;;;5073919;28;20036;-80
2022/08/20 10:04:25;;;;;;;23.60;15.00;;;;;;;;;;5073879;28;20558;-78
2022/08/20 10:06:51;;;;;;;23.38;13.35;;;;;;;;;;5055609;28;20490;-81
2022/08/20 10:09:17;;;;;;;23.38;12.70;;;;;;;;;;5073577;28;20016;-79
2022/08/20 10:11:44;;;;;;;25.30;13.45;;;;;;;;;;5073506;28;20060;-81
2022/08/20 10:14:10;;;;;;;27.88;13.70;;;;;;;;;;5055666;28;20098;-81
2022/08/20 10:16:36;;;;;;;27.67;13.85;;;;;;;;;;5073483;28;20027;-78
2022/08/20 10:19:04;;;;;;;29.02;14.27;;;;;;;;;;5073606;28;20020;-77
2022/08/20 10:21:31;;;;;;;27.95;15.20;;;;;;;;;;5073542;28;20103;-77
2022/08/20 10:23:58;;;;;;;25.80;12.73;;;;;;;;;;5055411;28;20113;-81
2022/08/20 10:26:24;;;;;;;21.55;14.30;;;;;;;;;;5073645;28;20074;-81
2022/08/20 10:28:50;;;;;;;29.30;15.30;;;;;;;;;;5055442;28;20382;-79
2022/08/20 10:31:16;;;;;;;26.25;14.10;;;;;;;;;;5073333;28;20025;-79
2022/08/20 10:33:43;;;;;;;29.33;15.23;;;;;;;;;;5073203;28;20027;-79
2022/08/20 10:36:14;;;;;;;31.83;16.33;;;;;;;;;;5073392;28;20040;-77
2022/08/20 10:38:40;;;;;;;24.17;16.45;;;;;;;;;;5073709;28;20028;-80
2022/08/20 10:41:06;;;;;;;23.58;14.68;;;;;;;;;;5077342;28;20033;-80
2022/08/20 10:43:32;;;;;;;27.98;15.02;;;;;;;;;;5077461;28;20512;-81
2022/08/20 10:45:59;;;;;;;31.98;16.20;;;;;;;;;;5077124;28;20374;-80
2022/08/20 10:48:25;;;;;;;23.63;13.85;;;;;;;;;;5059300;28;20078;-78
2022/08/20 10:50:51;;;;;;;25.95;14.70;;;;;;;;;;5077569;28;20023;-82
2022/08/20 10:53:18;;;;;;;27.13;14.43;;;;;;;;;;5076753;28;20116;-81
2022/08/20 10:55:44;;;;;;;25.65;14.90;;;;;;;;;;5077097;28;20027;-78
2022/08/20 10:58:11;;;;;;;29.30;13.40;;;;;;;;;;5076640;28;20024;-80
2022/08/20 11:00:38;;;;;;;28.73;14.00;;;;;;;;;;5077035;28;20024;-79
2022/08/20 11:03:04;;;;;;;22.25;15.32;;;;;;;;;;5076953;28;20028;-79
2022/08/20 11:05:31;;;;;;;28.02;11.00;;;;;;;;;;5058864;28;20111;-81
2022/08/20 11:07:58;;;;;;;30.02;12.35;;;;;;;;;;5077061;28;20024;-79
2022/08/20 11:10:26;;;;;;;28.35;11.05;;;;;;;;;;5058860;28;20020;-78
2022/08/20 11:12:52;;;;;;;34.00;11.45;;;;;;;;;;5076624;28;20027;-79
2022/08/20 11:15:18;;;;;;;26.58;11.00;;;;;;;;;;5076558;28;20020;-79
2022/08/20 11:17:44;;;;;;;27.10;14.73;;;;;;;;;;5058760;28;20054;-79
2022/08/20 11:20:12;;;;;;;21.50;13.57;;;;;;;;;;5076673;28;20115;-79
2022/08/20 11:22:38;;;;;;;25.08;14.95;;;;;;;;;;5076423;28;20023;-80
2022/08/20 11:25:05;;;;;;;27.27;13.73;;;;;;;;;;5076671;28;20017;-79
2022/08/20 11:27:35;;;;;;;24.52;13.50;;;;;;;;;;5076523;28;20024;-81
2022/08/20 11:30:01;;;;;;;26.85;12.73;;;;;;;;;;5076212;28;20446;-78
2022/08/20 11:32:28;;;;;;;29.75;14.45;;;;;;;;;;5076518;28;20020;-79
2022/08/20 11:34:54;;;;;;;29.85;13.50;;;;;;;;;;5075916;28;20024;-80
2022/08/20 11:37:21;;;;;;;25.38;13.27;;;;;;;;;;5076345;28;20043;-79
2022/08/20 11:39:47;;;;;;;21.30;12.85;;;;;;;;;;5076320;28;20035;-79
2022/08/20 11:42:13;;;;;;;25.77;13.65;;;;;;;;;;5076082;28;20382;-81
2022/08/20 11:44:40;;;;;;;20.70;12.23;;;;;;;;;;5075790;28;20099;-78
2022/08/20 11:47:06;;;;;;;25.45;13.48;;;;;;;;;;5075961;28;20020;-77
2022/08/20 11:49:34;;;;;;;33.35;14.43;;;;;;;;;;5075674;28;20028;-78
2022/08/20 11:52:00;;;;;;;31.17;12.45;;;;;;;;;;5075332;28;20034;-78
2022/08/20 11:54:27;;;;;;;33.42;14.13;;;;;;;;;;5076044;28;20028;-78
2022/08/20 11:56:56;;;;;;;25.17;13.15;;;;;;;;;;5076411;28;20028;-78
2022/08/20 11:59:22;;;;;;;25.08;12.55;;;;;;;;;;5075466;28;20523;-79
2022/08/20 12:01:49;;;;;;;26.73;12.88;;;;;;;;;;5075899;28;20375;-78
2022/08/20 12:04:15;;;;;;;23.08;13.93;;;;;;;;;;5075958;28;20078;-77
2022/08/20 12:06:41;;;;;;;27.25;15.00;;;;;;;;;;5075377;28;20565;-79
2022/08/20 12:09:07;;;;;;;26.70;13.18;;;;;;;;;;5075732;28;20034;-79
2022/08/20 12:11:33;;;;;;;27.88;14.48;;;;;;;;;;5075771;28;20023;-80
2022/08/20 12:13:59;;;;;;;30.45;14.32;;;;;;;;;;5075788;28;20016;-81
2022/08/20 12:16:26;;;;;;;20.95;14.18;;;;;;;;;;5075291;28;20025;-79
2022/08/20 12:18:52;;;;;;;35.08;15.20;;;;;;;;;;5075060;28;20032;-80
2022/08/20 12:21:18;;;;;;;27.52;14.90;;;;;;;;;;5057595;28;20024;-81
2022/08/20 12:23:44;;;;;;;23.88;15.10;;;;;;;;;;5075687;28;20060;-79
2022/08/20 12:26:10;;;;;;;19.70;13.75;;;;;;;;;;5075049;28;20025;-79
2022/08/20 12:28:36;;;;;;;24.25;15.93;;;;;;;;;;5075468;28;20115;-78
2022/08/20 12:31:03;;;;;;;28.08;15.02;;;;;;;;;;5075331;28;20451;-79
2022/08/20 12:33:30;;;;;;;24.58;14.77;;;;;;;;;;5075143;28;20463;-79
2022/08/20 12:35:56;;;;;;;24.52;14.32;;;;;;;;;;5075185;28;20044;-80
2022/08/20 12:38:22;;;;;;;30.65;14.43;;;;;;;;;;5074716;28;20054;-78
2022/08/20 12:40:49;;;;;;;26.23;14.50;;;;;;;;;;5074325;28;20033;-79
2022/08/20 12:43:15;;;;;;;23.88;13.70;;;;;;;;;;5075005;28;20025;-80
2022/08/20 12:45:41;;;;;;;22.85;13.85;;;;;;;;;;5074503;28;20032;-79
2022/08/20 12:48:09;;;;;;;23.92;14.38;;;;;;;;;;5056147;28;20025;-81
2022/08/20 12:50:36;;;;;;;28.20;15.05;;;;;;;;;;5056186;28;20029;-79
2022/08/20 12:53:03;;;;;;;18.95;13.60;;;;;;;;;;5074118;28;20021;-81
2022/08/20 12:55:29;;;;;;;19.98;14.77;;;;;;;;;;5056114;28;20028;-80
2022/08/20 12:57:58;;;;;;;30.70;14.90;;;;;;;;;;5056394;28;20506;-79
2022/08/20 13:00:40;;;;;;;23.08;13.00;;;;;;;;;;5056336;28;20536;-80
2022/08/20 13:03:06;;;;;;;18.70;13.43;;;;;;;;;;5073991;28;20086;-80
2022/08/20 13:05:33;;;;;;;22.92;14.60;;;;;;;;;;5073648;28;20463;-81
2022/08/20 13:07:59;;;;;;;21.85;12.82;;;;;;;;;;5074492;28;20059;-80
2022/08/20 13:10:27;;;;;;;21.60;13.90;;;;;;;;;;5074288;28;20050;-80
2022/08/20 13:12:53;;;;;;;22.63;12.82;;;;;;;;;;5074467;28;20024;-80